Time;durP1;ratioP1;P1;durP2;ratioP2;P2;SDS_P1;SDS_P2;PMS_P1;PMS_P2;Temp;Humidity;BMP_temperature;BMP_pressure;BME280_temperature;BME280_humidity;BME280_pressure;Samples;Min_cycle;Max_cycle;Signal;HPM_P1;HPM_P2
2022/09/25 00:00:21;;;;;;;13.88;8.10;;;11.00;99.90;;;;;;5044455;28;20052;-77
2022/09/25 00:02:47;;;;;;;11.13;3.80;;;11.00;99.90;;;;;;5044938;28;20051;-78
2022/09/25 00:05:12;;;;;;;8.25;3.17;;;11.00;99.90;;;;;;5028666;28;20147;-76
2022/09/25 00:07:38;;;;;;;14.82;3.83;;;11.00;99.90;;;;;;5023465;28;20060;-78
2022/09/25 00:10:04;;;;;;;10.40;4.10;;;11.00;99.90;;;;;;5025785;28;20037;-78
2022/09/25 00:12:30;;;;;;;10.30;3.35;;;11.00;99.90;;;;;;5039006;28;20045;-77
2022/09/25 00:14:56;;;;;;;9.15;3.55;;;10.90;99.90;;;;;;5047940;28;20043;-78
2022/09/25 00:17:21;;;;;;;9.25;4.47;;;10.90;99.90;;;;;;5050871;28;20049;-77
2022/09/25 00:19:50;;;;;;;11.13;4.47;;;10.90;99.90;;;;;;5047645;28;20400;-78
2022/09/25 00:22:20;;;;;;;10.30;4.85;;;10.90;99.90;;;;;;5045166;28;20044;-78
2022/09/25 00:24:46;;;;;;;12.50;6.15;;;10.90;99.90;;;;;;5044607;28;20041;-77
2022/09/25 00:27:12;;;;;;;10.60;4.30;;;10.90;99.90;;;;;;5023232;28;20040;-78
2022/09/25 00:29:39;;;;;;;9.55;3.45;;;10.90;99.90;;;;;;5042123;28;20033;-78
2022/09/25 00:32:07;;;;;;;9.43;3.35;;;10.80;99.90;;;;;;5028881;28;20431;-78
2022/09/25 00:34:33;;;;;;;9.88;2.92;;;10.80;99.90;;;;;;5045963;28;21820;-78
2022/09/25 00:36:58;;;;;;;7.68;2.72;;;10.80;99.90;;;;;;5045203;28;20116;-78
2022/09/25 00:39:25;;;;;;;6.38;2.85;;;10.80;99.90;;;;;;5027192;28;20127;-78
2022/09/25 00:41:51;;;;;;;10.35;2.80;;;10.80;99.90;;;;;;5044650;28;20890;-78
2022/09/25 00:44:49;;;;;;;12.15;3.17;;;10.80;99.90;;;;;;5046715;28;20107;-78
2022/09/25 00:47:21;;;;;;;11.82;3.50;;;10.70;99.90;;;;;;5046521;28;20610;-77
2022/09/25 00:49:48;;;;;;;5.95;2.33;;;10.70;99.90;;;;;;5046875;28;20057;-78
2022/09/25 00:52:14;;;;;;;9.25;2.65;;;10.60;99.90;;;;;;5027341;28;20045;-78
2022/09/25 00:54:46;;;;;;;9.02;2.50;;;10.60;99.90;;;;;;5045620;28;20043;-77
2022/09/25 00:57:16;;;;;;;6.82;2.35;;;10.50;99.90;;;;;;5047011;28;20068;-78
2022/09/25 00:59:46;;;;;;;11.38;3.60;;;10.60;99.90;;;;;;5040173;28;20475;-78
2022/09/25 01:02:23;;;;;;;10.25;2.88;;;10.50;99.90;;;;;;5044893;28;20491;-78
2022/09/25 01:04:50;;;;;;;10.35;2.72;;;10.50;99.90;;;;;;5033139;28;20074;-77
2022/09/25 01:07:16;;;;;;;8.50;2.30;;;10.40;99.90;;;;;;5045351;28;20474;-78
2022/09/25 01:09:44;;;;;;;9.10;2.60;;;10.40;99.90;;;;;;5039665;28;20167;-78
2022/09/25 01:12:09;;;;;;;;;;;10.40;99.90;;;;;;5040828;28;20099;-78
2022/09/25 01:14:37;;;;;;;11.25;2.42;;;10.30;99.90;;;;;;5047214;28;19924;-78
2022/09/25 01:17:36;;;;;;;7.35;2.97;;;10.20;99.90;;;;;;5046282;28;20040;-78
2022/09/25 01:20:39;;;;;;;6.25;2.45;;;10.30;99.90;;;;;;5042220;28;20074;-77
2022/09/25 01:23:43;;;;;;;7.65;2.60;;;10.20;99.90;;;;;;5040807;28;20041;-78
2022/09/25 01:26:39;;;;;;;7.68;3.17;;;10.20;99.90;;;;;;5006148;28;20775;-79
2022/09/25 01:29:17;;;;;;;8.48;3.55;;;10.20;99.90;;;;;;5026052;28;20095;-78
2022/09/25 01:32:09;;;;;;;10.55;3.00;;;10.10;99.90;;;;;;5044437;28;20456;-78
2022/09/25 01:34:51;;;;;;;10.15;3.08;;;10.10;99.90;;;;;;5045781;28;20044;-79
2022/09/25 01:37:32;;;;;;;7.00;2.97;;;10.10;99.90;;;;;;5039749;28;20045;-78
2022/09/25 01:40:12;;;;;;;8.52;2.47;;;10.10;99.90;;;;;;5042893;28;20125;-77
2022/09/25 01:42:51;;;;;;;9.88;3.15;;;10.10;99.90;;;;;;5046830;28;20068;-78
2022/09/25 01:45:22;;;;;;;9.07;2.95;;;10.10;99.90;;;;;;5040888;28;20045;-77
2022/09/25 01:47:51;;;;;;;8.50;3.00;;;10.00;99.90;;;;;;5047652;28;20052;-77
2022/09/25 01:50:29;;;;;;;8.15;2.90;;;10.00;99.90;;;;;;5042016;28;20081;-78
2022/09/25 01:53:00;;;;;;;9.48;2.65;;;10.00;99.90;;;;;;5039126;28;20937;-77
2022/09/25 01:55:34;;;;;;;12.15;2.88;;;10.00;99.90;;;;;;5029242;28;20064;-77
2022/09/25 01:58:21;;;;;;;12.88;2.83;;;10.00;99.90;;;;;;5045778;28;20041;-77
2022/09/25 02:00:54;;;;;;;7.93;2.47;;;10.00;99.90;;;;;;5043091;28;20045;-78
2022/09/25 02:03:29;;;;;;;6.35;2.50;;;9.90;99.90;;;;;;5043739;28;20045;-78
2022/09/25 02:06:01;;;;;;;10.40;2.80;;;9.90;99.90;;;;;;5040871;28;20037;-79
2022/09/25 02:08:34;;;;;;;6.97;2.72;;;9.80;99.90;;;;;;5025116;28;20067;-79
2022/09/25 02:11:03;;;;;;;6.20;2.50;;;9.80;99.90;;;;;;5048729;28;20735;-79
2022/09/25 02:13:42;;;;;;;7.50;2.83;;;9.70;99.90;;;;;;5047001;28;20063;-79
2022/09/25 02:16:15;;;;;;;7.97;2.60;;;9.70;99.90;;;;;;5043956;28;20383;-80
2022/09/25 02:21:37;;;;;;;8.95;3.30;;;9.70;99.90;;;;;;5042992;28;20128;-79
2022/09/25 02:24:24;;;;;;;7.60;2.63;;;9.60;99.90;;;;;;5038634;28;20515;-78
2022/09/25 02:26:50;;;;;;;7.18;2.67;;;9.60;99.90;;;;;;5041991;28;20044;-79
2022/09/25 02:29:17;;;;;;;8.38;2.80;;;9.60;99.90;;;;;;5038381;28;20052;-79
2022/09/25 02:32:27;;;;;;;8.25;2.70;;;9.60;99.90;;;;;;5042089;28;20134;-78
2022/09/25 02:34:52;;;;;;;8.88;2.90;;;9.60;99.90;;;;;;4978596;28;20034;-78
2022/09/25 02:37:18;;;;;;;7.75;2.90;;;9.60;99.90;;;;;;4983376;28;20664;-78
2022/09/25 02:39:50;;;;;;;7.07;2.85;;;9.60;99.90;;;;;;4995059;28;20077;-79
2022/09/25 02:42:43;;;;;;;6.68;2.95;;;9.70;99.90;;;;;;5026156;28;20496;-79
2022/09/25 02:45:34;;;;;;;5.57;2.80;;;9.60;99.90;;;;;;5041981;28;20324;-78
2022/09/25 02:48:11;;;;;;;6.15;2.88;;;9.60;99.90;;;;;;5022040;28;20564;-76
2022/09/25 02:51:01;;;;;;;4.53;2.38;;;9.50;99.90;;;;;;5027587;28;20089;-76
2022/09/25 02:53:58;;;;;;;5.57;2.67;;;9.50;99.90;;;;;;5039406;28;20029;-78
2022/09/25 02:56:37;;;;;;;6.95;2.95;;;9.40;99.90;;;;;;5042416;28;20041;-78
2022/09/25 02:59:17;;;;;;;7.25;3.00;;;9.40;99.90;;;;;;5026200;28;20049;-78
2022/09/25 03:01:46;;;;;;;7.13;2.40;;;9.40;99.90;;;;;;5025381;28;20487;-76
2022/09/25 03:04:16;;;;;;;5.13;2.42;;;9.30;99.90;;;;;;5040925;28;20155;-77
2022/09/25 03:06:43;;;;;;;4.95;2.47;;;9.30;99.90;;;;;;5022051;28;20045;-77
2022/09/25 03:09:10;;;;;;;7.17;3.00;;;9.20;99.90;;;;;;5042590;28;20048;-78
2022/09/25 03:11:41;;;;;;;10.38;3.22;;;9.20;99.90;;;;;;5043490;28;20307;-78
2022/09/25 03:14:06;;;;;;;9.77;3.17;;;9.20;99.90;;;;;;5023110;28;20049;-78
2022/09/25 03:16:41;;;;;;;9.15;2.85;;;9.20;99.90;;;;;;5039598;28;20032;-77
2022/09/25 03:19:07;;;;;;;7.32;2.97;;;9.30;99.90;;;;;;5028560;28;20049;-78
2022/09/25 03:21:33;;;;;;;7.32;3.05;;;9.30;99.90;;;;;;5042239;28;20045;-78
2022/09/25 03:23:59;;;;;;;7.95;2.92;;;9.30;99.90;;;;;;5043236;28;20045;-78
2022/09/25 03:26:26;;;;;;;11.40;3.30;;;9.30;99.90;;;;;;5046698;28;20481;-78
2022/09/25 03:28:52;;;;;;;8.40;3.20;;;9.30;99.90;;;;;;5040067;28;20056;-78
2022/09/25 03:31:19;;;;;;;8.77;3.60;;;9.30;99.90;;;;;;5041011;28;20049;-78
2022/09/25 03:33:45;;;;;;;13.73;3.53;;;9.30;99.90;;;;;;5023877;28;20380;-78
2022/09/25 03:36:17;;;;;;;12.43;4.03;;;9.30;99.90;;;;;;5037943;28;20485;-77
2022/09/25 03:38:44;;;;;;;7.63;3.50;;;9.30;99.90;;;;;;5042521;28;20476;-77
2022/09/25 03:41:12;;;;;;;10.07;3.58;;;9.40;99.90;;;;;;5041892;28;20724;-78
2022/09/25 03:43:39;;;;;;;;;;;9.40;99.90;;;;;;5038051;28;20124;-77
2022/09/25 03:46:07;;;;;;;10.23;4.13;;;9.30;99.90;;;;;;5043101;28;19927;-76
2022/09/25 03:48:34;;;;;;;11.10;3.97;;;9.30;99.90;;;;;;5024208;28;20040;-77
2022/09/25 03:51:00;;;;;;;7.40;4.07;;;9.30;99.90;;;;;;5046927;28;20089;-78
2022/09/25 03:53:28;;;;;;;5.85;3.30;;;9.30;99.90;;;;;;5048730;28;20045;-77
2022/09/25 03:55:55;;;;;;;7.93;3.53;;;9.30;99.90;;;;;;5031291;28;20060;-78
2022/09/25 03:58:20;;;;;;;7.55;3.50;;;9.30;99.90;;;;;;5044958;28;20052;-78
2022/09/25 04:00:46;;;;;;;9.25;3.80;;;9.20;99.90;;;;;;5044172;28;20550;-78
2022/09/25 04:03:13;;;;;;;8.45;3.90;;;9.20;99.90;;;;;;5045135;28;20053;-78
2022/09/25 04:05:40;;;;;;;9.95;3.83;;;9.30;99.90;;;;;;5045449;28;20388;-77
2022/09/25 04:08:05;;;;;;;8.65;3.88;;;9.20;99.90;;;;;;5047167;28;20056;-78
2022/09/25 04:10:32;;;;;;;8.40;3.85;;;9.20;99.90;;;;;;5048168;28;20044;-77
2022/09/25 04:12:58;;;;;;;10.45;4.07;;;9.30;99.90;;;;;;5045615;28;20072;-77
2022/09/25 04:15:23;;;;;;;9.80;4.07;;;9.30;99.90;;;;;;5029070;28;20087;-78
2022/09/25 04:17:52;;;;;;;9.02;3.70;;;9.20;99.90;;;;;;5046052;28;20059;-78
2022/09/25 04:20:18;;;;;;;10.88;4.20;;;9.20;99.90;;;;;;5044693;28;20049;-78
2022/09/25 04:22:44;;;;;;;8.50;3.92;;;9.30;99.90;;;;;;5044958;28;20080;-78
2022/09/25 04:25:10;;;;;;;12.00;4.18;;;9.30;99.90;;;;;;5046729;28;20589;-78
2022/09/25 04:27:36;;;;;;;10.00;3.92;;;9.30;99.90;;;;;;5045606;28;20103;-78
2022/09/25 04:30:06;;;;;;;10.85;3.83;;;9.20;99.90;;;;;;5026930;28;20080;-77
2022/09/25 04:35:16;;;;;;;8.88;4.10;;;9.20;99.90;;;;;;5031217;28;20037;-78
2022/09/25 04:37:42;;;;;;;8.55;3.92;;;9.20;99.90;;;;;;5045726;28;20053;-77
2022/09/25 04:40:08;;;;;;;9.73;3.58;;;9.20;99.90;;;;;;5011841;28;20033;-77
2022/09/25 04:42:34;;;;;;;9.00;3.75;;;9.20;99.90;;;;;;5047068;28;20037;-77
2022/09/25 04:44:59;;;;;;;9.32;4.00;;;9.20;99.90;;;;;;5046799;28;20037;-77
2022/09/25 04:47:28;;;;;;;11.55;4.05;;;9.10;99.90;;;;;;5045709;28;20064;-77
2022/09/25 04:49:53;;;;;;;8.07;3.70;;;9.10;99.90;;;;;;5044881;28;20049;-78
2022/09/25 04:52:21;;;;;;;9.52;4.20;;;9.10;99.90;;;;;;5045628;28;20111;-78
2022/09/25 04:54:47;;;;;;;6.65;3.42;;;9.10;99.90;;;;;;5023901;28;20087;-78
2022/09/25 04:57:17;;;;;;;8.27;4.05;;;9.10;99.90;;;;;;5046889;28;20048;-78
2022/09/25 04:59:44;;;;;;;8.15;3.50;;;9.10;99.90;;;;;;5043700;28;20768;-78
2022/09/25 05:02:10;;;;;;;6.47;3.38;;;9.10;99.90;;;;;;5041417;28;20045;-77
2022/09/25 05:04:36;;;;;;;9.57;3.63;;;9.10;99.90;;;;;;5045430;28;20071;-77
2022/09/25 05:07:02;;;;;;;8.77;3.83;;;9.10;99.90;;;;;;5025103;28;20841;-78
2022/09/25 05:09:28;;;;;;;9.40;3.50;;;9.00;99.90;;;;;;5029663;28;20049;-78
2022/09/25 05:11:54;;;;;;;8.52;3.60;;;9.00;99.90;;;;;;5026561;28;20446;-77
2022/09/25 05:14:19;;;;;;;7.80;3.90;;;9.00;99.90;;;;;;5029526;28;20053;-78
2022/09/25 05:16:46;;;;;;;7.18;3.65;;;8.90;99.90;;;;;;5039589;28;20468;-78
2022/09/25 05:19:11;;;;;;;6.22;3.45;;;8.90;99.90;;;;;;5042227;28;20083;-77
2022/09/25 05:21:37;;;;;;;8.73;3.58;;;8.90;99.90;;;;;;5042080;28;20045;-77
2022/09/25 05:24:03;;;;;;;6.18;3.60;;;8.90;99.90;;;;;;5028423;28;20508;-77
2022/09/25 05:26:29;;;;;;;6.72;3.47;;;8.90;99.90;;;;;;5048749;28;20431;-77
2022/09/25 05:28:55;;;;;;;7.32;3.50;;;8.90;99.90;;;;;;5040724;28;20136;-77
2022/09/25 05:31:20;;;;;;;5.68;3.15;;;8.80;99.90;;;;;;5045398;28;20036;-78
2022/09/25 05:33:47;;;;;;;6.28;2.72;;;8.80;99.90;;;;;;5042515;28;20033;-78
2022/09/25 05:36:13;;;;;;;5.68;3.45;;;8.70;99.90;;;;;;5040859;28;20047;-78
2022/09/25 05:38:39;;;;;;;8.10;3.78;;;8.70;99.90;;;;;;5024436;28;20140;-78
2022/09/25 05:41:09;;;;;;;5.82;3.63;;;8.70;99.90;;;;;;5044251;28;20080;-78
2022/09/25 05:43:39;;;;;;;11.60;4.05;;;8.70;99.90;;;;;;5043705;28;20487;-78
2022/09/25 05:46:05;;;;;;;9.32;3.90;;;8.70;99.90;;;;;;5043558;28;20132;-78
2022/09/25 05:48:31;;;;;;;7.70;3.83;;;8.70;99.90;;;;;;5043693;28;22296;-77
2022/09/25 05:50:57;;;;;;;7.50;3.33;;;8.70;99.90;;;;;;5040058;28;20550;-78
2022/09/25 05:53:23;;;;;;;7.43;3.45;;;8.80;99.90;;;;;;5044249;28;20049;-78
2022/09/25 05:55:54;;;;;;;6.10;3.15;;;8.80;99.90;;;;;;5043363;28;20041;-78
2022/09/25 05:58:20;;;;;;;7.18;3.40;;;8.80;99.90;;;;;;5044257;28;20127;-78
2022/09/25 06:00:46;;;;;;;6.47;3.20;;;8.90;99.90;;;;;;5038882;28;20045;-77
2022/09/25 06:03:14;;;;;;;5.93;3.20;;;8.90;99.90;;;;;;5042815;28;20056;-77
2022/09/25 06:05:40;;;;;;;9.20;4.18;;;8.90;99.90;;;;;;5025100;28;20052;-77
2022/09/25 06:08:06;;;;;;;7.45;3.40;;;8.90;99.90;;;;;;5043603;28;20700;-78
2022/09/25 06:10:34;;;;;;;10.87;3.30;;;9.00;99.90;;;;;;5047168;28;20492;-78
2022/09/25 06:13:01;;;;;;;7.50;3.35;;;9.00;99.90;;;;;;5040768;28;20707;-78
2022/09/25 06:15:37;;;;;;;;;;;9.00;99.90;;;;;;5041972;28;20443;-78
2022/09/25 06:18:05;;;;;;;8.93;3.58;;;9.00;99.90;;;;;;5044782;28;19921;-77
2022/09/25 06:20:31;;;;;;;7.28;3.50;;;9.00;99.90;;;;;;5045527;28;20446;-77
2022/09/25 06:22:59;;;;;;;8.02;3.63;;;9.10;99.90;;;;;;5042327;28;20044;-78
2022/09/25 06:25:27;;;;;;;10.32;3.47;;;9.10;99.90;;;;;;5045970;28;20037;-77
2022/09/25 06:27:56;;;;;;;9.30;3.70;;;9.20;99.90;;;;;;5021371;28;20096;-77
2022/09/25 06:30:26;;;;;;;9.57;3.60;;;9.20;99.90;;;;;;5032843;28;20139;-77
2022/09/25 06:32:58;;;;;;;10.60;3.80;;;9.20;99.90;;;;;;5041635;28;20099;-78
2022/09/25 06:35:25;;;;;;;7.40;4.00;;;9.30;99.90;;;;;;5044235;28;20049;-77
2022/09/25 06:37:50;;;;;;;12.45;4.07;;;9.40;99.90;;;;;;5042384;28;20040;-78
2022/09/25 06:40:16;;;;;;;12.75;4.32;;;9.40;99.90;;;;;;5045188;28;20068;-78
2022/09/25 06:42:43;;;;;;;8.13;4.07;;;9.50;99.90;;;;;;5044456;28;20080;-78
2022/09/25 06:45:10;;;;;;;9.10;4.05;;;9.60;99.90;;;;;;5021955;28;20504;-77
2022/09/25 06:47:36;;;;;;;10.35;4.55;;;9.60;99.90;;;;;;5045881;28;20125;-78
2022/09/25 06:50:01;;;;;;;6.72;4.00;;;9.70;99.90;;;;;;5041454;28;20120;-78
2022/09/25 06:52:27;;;;;;;10.65;4.18;;;9.70;99.90;;;;;;5049717;28;20079;-78
2022/09/25 06:54:53;;;;;;;10.05;4.20;;;9.70;99.90;;;;;;5045697;28;20095;-75
2022/09/25 06:57:21;;;;;;;8.68;3.63;;;9.80;99.90;;;;;;5044325;28;20048;-82
2022/09/25 06:59:49;;;;;;;8.73;4.00;;;9.90;99.90;;;;;;5025693;28;20037;-79
2022/09/25 07:04:59;;;;;;;9.30;3.55;;;10.10;99.90;;;;;;5044470;28;20091;-76
2022/09/25 07:07:24;;;;;;;8.57;3.63;;;10.10;99.90;;;;;;5046011;28;20057;-76
2022/09/25 07:09:50;;;;;;;11.48;3.72;;;10.20;99.90;;;;;;5043626;28;20037;-80
2022/09/25 07:12:17;;;;;;;9.27;4.35;;;10.30;99.90;;;;;;5043255;28;20112;-82
2022/09/25 07:14:45;;;;;;;10.80;3.65;;;10.40;99.90;;;;;;5036148;28;20041;-78
2022/09/25 07:17:12;;;;;;;10.38;3.80;;;10.50;99.90;;;;;;5042021;28;20047;-81
2022/09/25 07:19:39;;;;;;;8.75;4.07;;;10.60;99.90;;;;;;5046634;28;20053;-78
2022/09/25 07:22:05;;;;;;;10.75;4.03;;;10.70;99.90;;;;;;5046138;28;20049;-82
2022/09/25 07:24:31;;;;;;;9.43;4.22;;;10.80;99.90;;;;;;5045071;28;20044;-77
2022/09/25 07:26:57;;;;;;;12.50;4.30;;;10.80;99.90;;;;;;5049306;28;20452;-80
2022/09/25 07:29:23;;;;;;;11.55;3.85;;;10.90;99.90;;;;;;5031882;28;20141;-81
2022/09/25 07:31:49;;;;;;;9.45;3.60;;;11.00;99.90;;;;;;5046726;28;20508;-81
2022/09/25 07:34:15;;;;;;;8.25;3.55;;;11.10;99.90;;;;;;5044212;28;20052;-81
2022/09/25 07:36:41;;;;;;;9.63;3.40;;;11.20;99.90;;;;;;5046577;28;20045;-77
2022/09/25 07:39:08;;;;;;;10.10;3.28;;;11.30;99.90;;;;;;5037565;28;20223;-79
2022/09/25 07:41:34;;;;;;;7.55;3.40;;;11.40;99.90;;;;;;5028377;28;20600;-79
2022/09/25 07:44:00;;;;;;;12.10;3.65;;;11.40;99.90;;;;;;5049364;28;20045;-79
2022/09/25 07:46:27;;;;;;;11.88;3.50;;;11.50;99.90;;;;;;5037353;28;20059;-79
2022/09/25 07:48:54;;;;;;;10.27;3.30;;;11.60;99.90;;;;;;5043025;28;20048;-78
2022/09/25 07:51:21;;;;;;;9.65;2.90;;;11.60;99.90;;;;;;5048009;28;20083;-78
2022/09/25 07:53:48;;;;;;;7.28;2.90;;;11.70;99.90;;;;;;5040201;28;20101;-77
2022/09/25 07:56:28;;;;;;;6.05;2.75;;;11.80;99.90;;;;;;5046883;28;20044;-78
2022/09/25 07:58:54;;;;;;;8.10;2.92;;;11.70;99.90;;;;;;5048232;28;20045;-78
2022/09/25 08:01:20;;;;;;;6.75;2.58;;;11.90;99.90;;;;;;5046847;28;20519;-77
2022/09/25 08:03:48;;;;;;;8.32;2.80;;;11.90;99.90;;;;;;5048543;28;20047;-79
2022/09/25 08:06:15;;;;;;;6.35;2.63;;;12.00;99.90;;;;;;5048620;28;20050;-78
2022/09/25 08:08:53;;;;;;;9.95;3.17;;;12.00;99.90;;;;;;5025721;28;20068;-78
2022/09/25 08:11:19;;;;;;;12.52;3.42;;;12.20;99.90;;;;;;5043934;28;20041;-79
2022/09/25 08:13:45;;;;;;;8.55;2.88;;;12.20;99.90;;;;;;5030885;28;20051;-78
2022/09/25 08:16:14;;;;;;;12.85;2.88;;;12.30;99.90;;;;;;5047089;28;20076;-78
2022/09/25 08:18:42;;;;;;;9.73;2.53;;;12.30;99.90;;;;;;5049326;28;20041;-79
2022/09/25 08:21:09;;;;;;;8.43;2.80;;;12.40;99.90;;;;;;5050109;28;20053;-79
2022/09/25 08:23:35;;;;;;;7.38;2.55;;;12.50;99.90;;;;;;5049061;28;20049;-78
2022/09/25 08:26:01;;;;;;;9.30;2.10;;;12.50;99.90;;;;;;5047007;28;20033;-78
2022/09/25 08:28:28;;;;;;;6.90;2.38;;;12.60;99.90;;;;;;5049368;28;20037;-78
2022/09/25 08:30:53;;;;;;;8.20;2.80;;;12.70;99.90;;;;;;5036151;28;20048;-77
2022/09/25 08:33:19;;;;;;;9.40;2.53;;;12.70;99.90;;;;;;5047355;28;20048;-77
2022/09/25 08:35:58;;;;;;;7.95;3.00;;;12.80;99.90;;;;;;5048172;28;20033;-79
2022/09/25 08:38:25;;;;;;;7.03;2.00;;;12.90;99.90;;;;;;5045745;28;20049;-79
2022/09/25 08:40:58;;;;;;;8.25;1.73;;;12.90;99.90;;;;;;5030404;28;20041;-79
2022/09/25 08:43:25;;;;;;;5.82;1.67;;;13.10;99.90;;;;;;5026694;28;20061;-79
2022/09/25 08:51:38;;;;;;;9.07;1.80;;;13.30;99.90;;;;;;5050001;28;20041;-80
2022/09/25 08:54:06;;;;;;;6.90;1.48;;;13.40;99.90;;;;;;5048090;28;20053;-80
2022/09/25 08:56:34;;;;;;;8.48;1.20;;;13.50;99.90;;;;;;5031132;28;20088;-83
2022/09/25 08:59:27;;;;;;;8.38;1.98;;;13.60;99.90;;;;;;5031339;28;20048;-78
2022/09/25 09:02:00;;;;;;;9.70;1.65;;;13.60;99.90;;;;;;5027243;28;20037;-80
2022/09/25 09:04:35;;;;;;;10.02;2.28;;;13.70;99.90;;;;;;5046390;28;20044;-80
2022/09/25 09:07:26;;;;;;;7.10;1.40;;;13.70;99.90;;;;;;5045381;28;20037;-80
2022/09/25 09:10:07;;;;;;;5.70;1.50;;;13.80;99.90;;;;;;5044504;28;20484;-80
2022/09/25 09:12:41;;;;;;;9.70;1.70;;;13.90;99.90;;;;;;5032671;28;20053;-82
2022/09/25 09:15:35;;;;;;;11.73;1.88;;;13.90;99.90;;;;;;5039340;28;20099;-81
2022/09/25 09:18:22;;;;;;;6.90;1.27;;;14.00;99.90;;;;;;5040796;28;20041;-78
2022/09/25 09:20:50;;;;;;;10.32;1.40;;;14.10;99.90;;;;;;5049844;28;20029;-78
2022/09/25 09:23:20;;;;;;;7.78;1.60;;;14.10;99.90;;;;;;5054701;28;20073;-78
2022/09/25 09:25:58;;;;;;;6.60;1.73;;;14.20;99.90;;;;;;5047608;28;20032;-77
2022/09/25 09:28:48;;;;;;;9.57;1.45;;;14.30;99.90;;;;;;5026628;28;20065;-79
2022/09/25 09:31:55;;;;;;;5.72;1.33;;;14.30;99.90;;;;;;5025381;28;20045;-78
2022/09/25 09:34:39;;;;;;;9.02;1.23;;;14.30;99.90;;;;;;4990378;28;20615;-78
2022/09/25 09:37:24;;;;;;;7.00;1.27;;;14.30;99.90;;;;;;5045130;28;20700;-78
2022/09/25 09:40:27;;;;;;;8.18;1.50;;;14.30;99.90;;;;;;5042603;28;20561;-78
2022/09/25 09:43:03;;;;;;;5.13;1.10;;;14.40;99.90;;;;;;5039819;28;20049;-78
2022/09/25 09:45:53;;;;;;;6.25;1.20;;;14.50;99.90;;;;;;5024381;28;20039;-80
2022/09/25 09:48:34;;;;;;;6.05;1.02;;;14.60;99.90;;;;;;5045546;28;20552;-79
2022/09/25 09:51:24;;;;;;;6.43;1.25;;;14.60;99.90;;;;;;5027599;28;20055;-78
2022/09/25 09:53:58;;;;;;;4.70;1.20;;;14.80;99.90;;;;;;5025372;28;20057;-78
2022/09/25 09:56:31;;;;;;;5.90;1.30;;;14.90;99.90;;;;;;5044615;28;20048;-86
2022/09/25 09:59:13;;;;;;;7.05;1.10;;;14.90;99.90;;;;;;5040823;28;20049;-82
2022/09/25 10:02:05;;;;;;;6.68;1.10;;;15.00;99.90;;;;;;5027300;28;20522;-81
2022/09/25 10:04:38;;;;;;;6.32;1.33;;;15.10;99.90;;;;;;5014135;28;20056;-81
2022/09/25 10:07:17;;;;;;;9.38;1.65;;;15.20;99.90;;;;;;5029967;28;20046;-81
2022/09/25 10:09:43;;;;;;;6.85;1.30;;;15.30;99.90;;;;;;5025967;28;20052;-81
2022/09/25 10:12:28;;;;;;;6.03;1.10;;;15.30;99.90;;;;;;5045180;28;20041;-81
2022/09/25 10:14:57;;;;;;;5.95;1.35;;;15.50;99.90;;;;;;5030601;28;20068;-81
2022/09/25 10:17:24;;;;;;;5.85;1.10;;;15.60;99.90;;;;;;5047910;28;20400;-82
2022/09/25 10:19:59;;;;;;;5.05;1.40;;;15.60;99.90;;;;;;5047282;28;20049;-81
2022/09/25 10:22:29;;;;;;;6.13;1.35;;;15.60;99.90;;;;;;5048632;28;20045;-82
2022/09/25 10:25:04;;;;;;;6.07;1.15;;;15.70;99.90;;;;;;5027734;28;20044;-81
2022/09/25 10:27:31;;;;;;;5.90;1.27;;;15.60;99.90;;;;;;5047844;28;20466;-81
2022/09/25 10:30:09;;;;;;;4.32;1.15;;;15.60;99.90;;;;;;5045462;28;20138;-82
2022/09/25 10:33:01;;;;;;;5.32;1.00;;;15.60;99.90;;;;;;5029219;28;20049;-82
2022/09/25 10:35:42;;;;;;;6.90;1.20;;;15.60;99.90;;;;;;5047159;28;20124;-82
2022/09/25 10:38:33;;;;;;;3.15;1.00;;;15.60;99.90;;;;;;5030694;28;20056;-82
2022/09/25 10:41:11;;;;;;;3.88;0.93;;;15.50;99.90;;;;;;5026925;28;20072;-82
2022/09/25 10:43:52;;;;;;;6.63;1.23;;;15.50;99.90;;;;;;5048269;28;20098;-81
2022/09/25 10:50:09;;;;;;;6.43;1.10;;;15.50;99.90;;;;;;5045099;28;20492;-82
2022/09/25 10:52:13;;;;;;;4.90;1.20;;;15.40;99.90;;;;;;5029947;28;20056;-82
2022/09/25 10:54:39;;;;;;;6.47;1.00;;;15.40;99.90;;;;;;5046542;28;20047;-81
2022/09/25 10:57:33;;;;;;;5.47;1.27;;;15.40;99.90;;;;;;5033895;28;20048;-82
2022/09/25 11:00:02;;;;;;;3.42;0.80;;;15.40;99.90;;;;;;5032536;28;20045;-82
2022/09/25 11:02:28;;;;;;;4.07;0.70;;;15.30;99.90;;;;;;5034150;28;20080;-82
2022/09/25 11:04:55;;;;;;;2.15;0.57;;;15.20;99.90;;;;;;5032878;28;20166;-82
2022/09/25 11:07:26;;;;;;;2.03;0.65;;;15.10;99.90;;;;;;5051479;28;20040;-82
2022/09/25 11:09:51;;;;;;;2.13;0.80;;;15.00;99.90;;;;;;5049047;28;20052;-82
2022/09/25 11:12:28;;;;;;;3.70;0.93;;;14.90;99.90;;;;;;5013977;28;20053;-82
2022/09/25 11:15:08;;;;;;;3.00;0.80;;;14.80;99.90;;;;;;5013291;28;20053;-81
2022/09/25 11:17:42;;;;;;;1.55;0.73;;;14.60;99.90;;;;;;5031575;28;20072;-81
2022/09/25 11:20:26;;;;;;;2.85;0.70;;;14.50;99.90;;;;;;5031223;28;20053;-82
2022/09/25 11:23:13;;;;;;;2.88;0.90;;;14.50;99.90;;;;;;5031569;28;20096;-82
2022/09/25 11:25:49;;;;;;;;;;;14.40;99.90;;;;;;5044316;28;20041;-82
2022/09/25 11:28:34;;;;;;;2.47;0.87;;;14.40;99.90;;;;;;5032402;28;19924;-82
2022/09/25 11:31:13;;;;;;;2.53;0.80;;;14.40;99.90;;;;;;5030786;28;20084;-82
2022/09/25 11:34:04;;;;;;;2.83;0.68;;;14.40;99.90;;;;;;5049656;28;20047;-82
2022/09/25 11:36:43;;;;;;;2.33;0.60;;;14.40;99.90;;;;;;5054313;28;20417;-82
2022/09/25 11:42:31;;;;;;;1.67;0.60;;;14.50;99.90;;;;;;5038657;28;20110;-82
2022/09/25 11:45:18;;;;;;;2.88;0.70;;;14.60;99.90;;;;;;5028505;28;20045;-88
2022/09/25 11:48:18;;;;;;;2.72;0.70;;;14.60;99.90;;;;;;5027729;28;20057;-79
2022/09/25 11:51:16;;;;;;;2.58;0.77;;;14.70;99.90;;;;;;5043542;28;20265;-78
2022/09/25 11:54:07;;;;;;;3.50;1.00;;;14.70;99.90;;;;;;4996619;28;20053;-81
2022/09/25 11:56:33;;;;;;;1.95;0.70;;;14.80;99.90;;;;;;4994602;28;20051;-81
2022/09/25 11:59:23;;;;;;;2.95;0.90;;;14.90;99.90;;;;;;5042621;28;20041;-81
2022/09/25 12:02:03;;;;;;;3.30;0.88;;;15.00;99.90;;;;;;5040469;28;20053;-80
2022/09/25 12:05:17;;;;;;;3.13;0.63;;;15.00;99.90;;;;;;5045060;28;20552;-81
2022/09/25 12:08:11;;;;;;;3.70;0.98;;;15.10;99.90;;;;;;4983138;28;20050;-81
2022/09/25 12:11:01;;;;;;;3.50;0.75;;;15.20;99.90;;;;;;4985838;28;20057;-80
2022/09/25 12:13:53;;;;;;;4.85;0.90;;;15.30;99.90;;;;;;4988508;28;20060;-86
2022/09/25 12:16:27;;;;;;;2.47;0.85;;;15.30;99.90;;;;;;5017989;28;20059;-83
2022/09/25 12:19:22;;;;;;;5.53;0.95;;;15.40;99.90;;;;;;5029948;28;20091;-86
2022/09/25 12:22:16;;;;;;;3.45;0.90;;;15.40;99.90;;;;;;5045545;28;20089;-82
2022/09/25 12:24:55;;;;;;;4.55;1.23;;;15.50;99.90;;;;;;5026093;28;20044;-79
2022/09/25 12:28:07;;;;;;;3.55;1.00;;;15.50;99.90;;;;;;5047009;28;20052;-79
2022/09/25 12:31:07;;;;;;;2.05;0.90;;;15.60;99.90;;;;;;5041738;28;20053;-79
2022/09/25 12:33:54;;;;;;;4.35;0.95;;;15.50;99.90;;;;;;5026309;28;20116;-79
2022/09/25 12:36:35;;;;;;;3.10;0.95;;;15.60;99.90;;;;;;5038653;28;20052;-81
2022/09/25 12:39:19;;;;;;;6.30;0.90;;;15.60;99.90;;;;;;5023486;28;20053;-82
2022/09/25 12:42:16;;;;;;;6.15;1.05;;;15.60;99.90;;;;;;5046360;28;20041;-83
2022/09/25 12:45:05;;;;;;;3.33;0.80;;;15.60;99.90;;;;;;5044593;28;20104;-84
2022/09/25 12:47:47;;;;;;;3.47;0.90;;;15.80;99.90;;;;;;5045482;28;20056;-82
2022/09/25 12:50:20;;;;;;;2.00;0.73;;;15.80;99.90;;;;;;5055961;28;20212;-80
2022/09/25 12:53:05;;;;;;;3.00;0.65;;;15.90;99.90;;;;;;5049359;28;20045;-82
2022/09/25 12:55:42;;;;;;;3.28;0.65;;;16.00;99.90;;;;;;5040791;28;20045;-80
2022/09/25 12:58:20;;;;;;;3.17;0.70;;;16.00;99.90;;;;;;5043972;28;20176;-86
2022/09/25 13:00:51;;;;;;;3.03;0.80;;;16.10;99.90;;;;;;5041448;28;20053;-82
2022/09/25 13:03:31;;;;;;;2.30;0.80;;;16.10;99.90;;;;;;5044616;28;20037;-80
2022/09/25 13:06:39;;;;;;;2.10;0.70;;;16.20;99.90;;;;;;5041873;28;20115;-78
2022/09/25 13:09:19;;;;;;;3.03;1.10;;;16.30;99.90;;;;;;5027941;28;20045;-78
2022/09/25 13:11:54;;;;;;;3.85;1.17;;;16.30;99.90;;;;;;5043734;28;20164;-78
2022/09/25 13:14:40;;;;;;;5.85;0.80;;;16.30;99.90;;;;;;5023307;28;20123;-78
2022/09/25 13:17:14;;;;;;;3.10;0.98;;;16.20;99.90;;;;;;5026829;28;20072;-78
2022/09/25 13:19:43;;;;;;;4.63;0.80;;;16.20;99.90;;;;;;5047875;28;20037;-84
2022/09/25 13:22:23;;;;;;;2.88;0.75;;;16.20;99.90;;;;;;5045589;28;20045;-76
2022/09/25 13:25:13;;;;;;;2.20;0.80;;;16.20;99.90;;;;;;5029568;28;20049;-78
2022/09/25 13:27:45;;;;;;;2.25;0.70;;;16.20;99.90;;;;;;5019001;28;20499;-79
2022/09/25 13:30:39;;;;;;;3.72;0.90;;;16.20;99.90;;;;;;5046736;28;20049;-79
2022/09/25 13:33:18;;;;;;;2.45;0.77;;;16.20;99.90;;;;;;5026624;28;20093;-79
2022/09/25 13:35:45;;;;;;;2.70;1.00;;;16.20;99.90;;;;;;5043285;28;20045;-80
2022/09/25 13:41:14;;;;;;;3.05;0.80;;;16.20;99.90;;;;;;5044623;28;20407;-84
2022/09/25 13:43:40;;;;;;;3.05;0.80;;;16.10;99.90;;;;;;5023129;28;20060;-82
2022/09/25 13:46:22;;;;;;;1.88;0.93;;;16.10;99.90;;;;;;5046643;28;20067;-77